createdAt,value
2018-07-02T00:00:02.657Z,58.40
2018-07-02T00:02:31.160Z,58.80
2018-07-02T00:04:59.577Z,58.90
2018-07-02T00:07:28.430Z,59.30
2018-07-02T00:09:56.823Z,59.60
2018-07-02T00:12:25.636Z,59.60
2018-07-02T00:14:54.635Z,59.80
2018-07-02T00:17:23.060Z,60.00
2018-07-02T00:19:51.460Z,60.20
2018-07-02T00:22:20.012Z,60.90
2018-07-02T00:24:48.454Z,60.40
2018-07-02T00:27:16.860Z,60.80
2018-07-02T00:29:45.247Z,61.00
2018-07-02T00:32:13.684Z,60.40
2018-07-02T00:34:42.176Z,60.90
2018-07-02T00:37:10.635Z,61.30
2018-07-02T00:39:39.068Z,62.20
2018-07-02T00:44:35.611Z,63.50
2018-07-02T00:47:04.039Z,63.90
2018-07-02T00:49:32.442Z,63.60
2018-07-02T00:52:01.136Z,65.90
2018-07-02T00:54:29.579Z,64.30
2018-07-02T00:56:58.013Z,64.40
2018-07-02T00:59:26.447Z,65.10
2018-07-02T01:01:55.253Z,65.00
2018-07-02T01:04:23.659Z,64.90
2018-07-02T01:06:52.111Z,65.10
2018-07-02T01:09:20.499Z,65.10
2018-07-02T01:11:48.914Z,65.60
2018-07-02T01:14:17.305Z,65.80
2018-07-02T01:16:45.732Z,66.20
2018-07-02T01:19:14.169Z,66.80
2018-07-02T01:24:11.073Z,65.90
2018-07-02T01:26:39.472Z,66.20
2018-07-02T01:29:07.879Z,66.70
2018-07-02T01:31:36.278Z,66.50
2018-07-02T01:34:04.822Z,66.90
2018-07-02T01:36:33.456Z,66.70
2018-07-02T01:39:01.944Z,68.70
2018-07-02T01:41:30.339Z,67.10
2018-07-02T01:43:58.742Z,67.30
2018-07-02T01:46:27.147Z,67.40
2018-07-02T01:48:55.551Z,67.30
2018-07-02T01:51:23.936Z,68.80
2018-07-02T01:53:52.371Z,68.80
2018-07-02T01:56:20.799Z,69.10
2018-07-02T01:58:49.219Z,69.10
2018-07-02T02:01:17.790Z,69.50
2018-07-02T02:03:46.215Z,69.00
2018-07-02T02:06:14.672Z,69.20
2018-07-02T02:08:43.145Z,69.90
2018-07-02T02:11:11.559Z,70.10
2018-07-02T02:13:39.952Z,70.20
2018-07-02T02:16:08.403Z,70.90
2018-07-02T02:18:36.820Z,72.50
2018-07-02T02:21:05.275Z,72.90
2018-07-02T02:23:33.984Z,72.40
2018-07-02T02:26:02.534Z,73.70
2018-07-02T02:28:30.940Z,73.80
2018-07-02T02:30:59.363Z,73.40
2018-07-02T02:33:27.765Z,74.80
2018-07-02T02:35:56.460Z,76.70
2018-07-02T02:38:24.959Z,75.60
2018-07-02T02:40:53.510Z,77.80
2018-07-02T02:43:21.904Z,76.60
2018-07-02T02:45:50.311Z,77.40
2018-07-02T02:48:19.057Z,76.90
2018-07-02T02:50:47.663Z,78.10
2018-07-02T02:53:16.139Z,77.30
2018-07-02T02:55:44.568Z,76.50
2018-07-02T02:58:13.253Z,77.20
2018-07-02T03:00:41.665Z,76.30
2018-07-02T03:03:10.055Z,77.10
2018-07-02T03:05:38.471Z,76.50
2018-07-02T03:08:06.863Z,78.50
2018-07-02T03:10:35.388Z,75.40
2018-07-02T03:13:03.820Z,76.70
2018-07-02T03:15:32.249Z,77.40
2018-07-02T03:18:00.643Z,79.60
2018-07-02T03:20:29.111Z,82.50
2018-07-02T03:22:57.443Z,82.60
2018-07-02T03:27:53.965Z,84.50
2018-07-02T03:30:22.579Z,85.30
2018-07-02T03:32:51.040Z,86.20
2018-07-02T03:35:19.472Z,86.80
2018-07-02T03:37:47.904Z,87.10
2018-07-02T03:40:16.324Z,87.80
2018-07-02T03:42:44.736Z,89.50
2018-07-02T03:45:13.155Z,90.10
2018-07-02T03:47:41.567Z,90.00
2018-07-02T03:50:09.976Z,90.10
2018-07-02T03:52:38.412Z,90.10
2018-07-02T03:55:06.835Z,90.30
2018-07-02T03:57:35.247Z,90.60
2018-07-02T04:00:03.748Z,90.60
2018-07-02T04:02:32.156Z,91.50
2018-07-02T04:05:00.548Z,91.20
2018-07-02T04:07:28.970Z,91.60
2018-07-02T04:09:57.343Z,92.20
2018-07-02T04:12:25.816Z,92.00
2018-07-02T04:14:54.256Z,91.80
2018-07-02T04:17:22.692Z,91.80
2018-07-02T04:19:51.313Z,91.00
2018-07-02T04:22:19.836Z,91.10
2018-07-02T04:24:48.238Z,91.30
2018-07-02T04:27:16.631Z,91.20
2018-07-02T04:29:45.046Z,91.40
2018-07-02T04:32:13.443Z,91.80
2018-07-02T04:34:41.860Z,92.20
2018-07-02T04:37:10.345Z,92.80
2018-07-02T04:39:38.849Z,92.80
2018-07-02T04:42:07.340Z,92.40
2018-07-02T04:44:35.755Z,92.40
2018-07-02T04:47:04.172Z,93.00
2018-07-02T04:49:32.611Z,92.40
2018-07-02T04:52:01.184Z,92.10
2018-07-02T04:54:29.616Z,91.60
2018-07-02T04:56:58.075Z,91.00
2018-07-02T04:59:26.519Z,91.40
2018-07-02T05:01:54.907Z,90.90
2018-07-02T05:04:23.321Z,90.90
2018-07-02T05:06:52.183Z,90.80
2018-07-02T05:09:20.588Z,89.10
2018-07-02T05:11:48.980Z,80.20
2018-07-02T05:14:17.485Z,67.30
2018-07-02T05:16:45.880Z,59.50
2018-07-02T05:19:14.857Z,57.10
2018-07-02T05:21:43.352Z,56.00
2018-07-02T05:24:11.776Z,54.30
2018-07-02T05:26:40.211Z,51.80
2018-07-02T05:29:08.622Z,51.00
2018-07-02T05:31:37.204Z,50.70
2018-07-02T05:34:06.036Z,50.50
2018-07-02T05:36:34.480Z,49.80
2018-07-02T05:39:03.224Z,49.90
2018-07-02T05:41:31.787Z,48.20
2018-07-02T05:44:00.243Z,46.80
2018-07-02T05:46:28.664Z,46.30
2018-07-02T05:48:57.067Z,45.70
2018-07-02T05:51:25.537Z,44.60
2018-07-02T05:53:53.934Z,44.70
2018-07-02T05:56:22.391Z,45.60
2018-07-02T05:58:51.026Z,45.50
2018-07-02T06:01:19.639Z,44.20
2018-07-02T06:06:17.267Z,43.20
2018-07-02T06:08:45.765Z,42.80
2018-07-02T06:11:14.276Z,43.00
2018-07-02T06:13:42.848Z,42.90
2018-07-02T06:16:11.358Z,43.20
2018-07-02T06:18:39.767Z,42.40
2018-07-02T06:21:09.628Z,42.70
2018-07-02T06:23:39.448Z,41.60
2018-07-02T06:26:08.008Z,41.30
2018-07-02T06:28:36.404Z,41.10
2018-07-02T06:31:05.287Z,40.80
2018-07-02T06:33:33.760Z,40.10
2018-07-02T06:36:02.200Z,40.40
2018-07-02T06:38:30.743Z,39.30
2018-07-02T06:40:59.177Z,40.60
2018-07-02T06:43:27.579Z,39.00
2018-07-02T06:45:55.989Z,42.00
2018-07-02T06:48:24.482Z,40.70
2018-07-02T06:50:53.204Z,41.10
2018-07-02T06:53:21.706Z,41.10
2018-07-02T06:55:50.231Z,40.80
2018-07-02T06:58:18.731Z,38.70
2018-07-02T07:00:47.591Z,38.00
2018-07-02T07:03:16.046Z,36.90
2018-07-02T07:05:44.420Z,37.30
2018-07-02T07:08:12.897Z,37.90
2018-07-02T07:10:41.296Z,37.80
2018-07-02T07:13:09.724Z,37.50
2018-07-02T07:15:38.165Z,39.70
2018-07-02T07:18:06.583Z,37.70
2018-07-02T07:20:34.957Z,38.10
2018-07-02T07:23:03.427Z,39.70
2018-07-02T07:25:31.836Z,38.80
2018-07-02T07:28:00.240Z,39.30
2018-07-02T07:30:28.903Z,40.40
2018-07-02T07:32:57.375Z,38.90
2018-07-02T07:35:25.812Z,39.70
2018-07-02T07:37:54.388Z,36.90
2018-07-02T07:40:22.777Z,38.40
2018-07-02T07:42:51.328Z,37.60
2018-07-02T07:45:19.760Z,37.50
2018-07-02T07:47:48.196Z,37.10
2018-07-02T07:50:16.616Z,37.10
2018-07-02T07:52:45.072Z,36.60
2018-07-02T07:55:13.442Z,35.60
2018-07-02T07:57:47.379Z,37.30
2018-07-02T08:00:16.291Z,36.50
2018-07-02T08:02:44.685Z,36.20
2018-07-02T08:05:13.129Z,37.30
2018-07-02T08:07:41.548Z,36.10
2018-07-02T08:10:09.954Z,36.40
2018-07-02T08:12:38.424Z,35.40
2018-07-02T08:15:06.918Z,35.40
2018-07-02T08:17:35.340Z,35.00
2018-07-02T08:20:03.854Z,35.80
2018-07-02T08:22:32.271Z,36.30
2018-07-02T08:25:00.951Z,37.20
2018-07-02T08:27:29.339Z,35.70
2018-07-02T08:29:57.759Z,36.20
2018-07-02T08:32:26.147Z,36.40
2018-07-02T08:34:55.089Z,35.20
2018-07-02T08:37:23.492Z,34.90
2018-07-02T08:39:51.920Z,34.60
2018-07-02T08:42:20.307Z,37.50
2018-07-02T08:44:48.749Z,37.20
2018-07-02T08:47:23.623Z,36.30
2018-07-02T08:49:52.031Z,36.70
2018-07-02T08:52:20.509Z,36.00
2018-07-02T08:54:49.003Z,34.30
2018-07-02T08:57:18.131Z,34.40
2018-07-02T08:59:46.546Z,33.90
2018-07-02T09:02:14.928Z,33.70
2018-07-02T09:04:43.360Z,34.40
2018-07-02T09:07:11.777Z,34.90
2018-07-02T09:09:40.199Z,34.70
2018-07-02T09:12:08.612Z,34.20
2018-07-02T09:14:37.081Z,34.00
2018-07-02T09:17:05.587Z,34.40
2018-07-02T09:19:34.057Z,35.40
2018-07-02T09:22:02.432Z,35.00
2018-07-02T09:24:30.861Z,33.60
2018-07-02T09:26:59.290Z,33.50
2018-07-02T09:29:28.289Z,34.00
2018-07-02T09:31:56.677Z,35.50
2018-07-02T09:34:25.077Z,34.90
2018-07-02T09:36:53.989Z,34.90
2018-07-02T09:39:23.277Z,34.50
2018-07-02T09:41:51.707Z,34.60
2018-07-02T09:44:20.140Z,35.00
2018-07-02T09:46:48.543Z,36.00
2018-07-02T09:49:16.958Z,39.10
2018-07-02T09:51:45.350Z,40.20
2018-07-02T09:54:13.752Z,40.70
2018-07-02T09:56:42.172Z,40.70
2018-07-02T09:59:10.579Z,39.80
2018-07-02T10:01:38.952Z,40.10
2018-07-02T10:04:07.699Z,40.10
2018-07-02T10:06:36.197Z,41.50
2018-07-02T10:09:07.921Z,42.00
2018-07-02T10:11:36.284Z,42.00
2018-07-02T10:14:04.709Z,42.00
2018-07-02T10:16:33.164Z,42.90
2018-07-02T10:19:01.533Z,42.10
2018-07-02T10:21:29.931Z,41.90
2018-07-02T10:23:58.401Z,41.50
2018-07-02T10:26:26.728Z,42.30
2018-07-02T10:28:55.104Z,42.80
2018-07-02T10:31:23.623Z,43.40
2018-07-02T10:33:51.922Z,43.70
2018-07-02T10:36:20.334Z,43.70
2018-07-02T10:38:48.721Z,44.40
2018-07-02T10:41:17.124Z,43.60
2018-07-02T10:43:45.496Z,43.80
2018-07-02T10:46:13.894Z,44.50
2018-07-02T10:48:42.283Z,43.60
2018-07-02T10:51:10.695Z,43.00
2018-07-02T10:53:39.075Z,43.70
2018-07-02T10:56:07.672Z,43.10
2018-07-02T10:58:36.063Z,43.60
2018-07-02T11:01:04.566Z,41.90
2018-07-02T11:03:32.949Z,43.10
2018-07-02T11:06:01.357Z,43.50
2018-07-02T11:08:29.811Z,44.10
2018-07-02T11:13:26.303Z,44.90
2018-07-02T11:15:54.716Z,44.60
2018-07-02T11:18:23.113Z,44.50
2018-07-02T11:20:51.527Z,44.10
2018-07-02T11:23:19.912Z,44.40
2018-07-02T11:25:48.318Z,44.70
2018-07-02T11:28:16.725Z,44.70
2018-07-02T11:30:45.143Z,44.10
2018-07-02T11:33:13.528Z,44.20
2018-07-02T11:35:41.956Z,44.50
2018-07-02T11:38:10.348Z,44.60
2018-07-02T11:40:38.740Z,45.20
2018-07-02T11:43:07.137Z,45.60
2018-07-02T11:45:35.547Z,46.10
2018-07-02T11:48:03.944Z,46.10
2018-07-02T11:50:32.353Z,44.50
2018-07-02T11:53:01.489Z,45.10
2018-07-02T11:55:29.938Z,44.80
2018-07-02T11:57:58.551Z,44.80
2018-07-02T12:00:26.959Z,45.10
2018-07-02T12:02:55.368Z,45.80
2018-07-02T12:05:23.756Z,44.80
2018-07-02T12:07:52.157Z,45.50
2018-07-02T12:10:20.593Z,45.10
2018-07-02T12:12:49.104Z,45.80
2018-07-02T12:15:17.515Z,45.60
2018-07-02T12:17:45.931Z,45.70
2018-07-02T12:20:14.864Z,46.10
2018-07-02T12:22:43.277Z,49.20
2018-07-02T12:25:11.824Z,46.10
2018-07-02T12:27:40.252Z,45.70
2018-07-02T12:30:08.661Z,46.30
2018-07-02T12:32:37.363Z,45.70
2018-07-02T12:35:05.772Z,46.50
2018-07-02T12:37:34.176Z,46.10
2018-07-02T12:40:02.736Z,46.30
2018-07-02T12:42:31.256Z,45.80
2018-07-02T12:44:59.652Z,45.50
2018-07-02T12:47:28.052Z,47.40
2018-07-02T12:49:56.456Z,45.80
2018-07-02T12:52:24.908Z,45.70
2018-07-02T12:54:53.283Z,46.10
2018-07-02T12:57:21.705Z,45.70
2018-07-02T12:59:50.092Z,46.10
2018-07-02T13:02:18.558Z,45.10
2018-07-02T13:04:46.900Z,45.10
2018-07-02T13:07:15.296Z,45.00
2018-07-02T13:09:43.722Z,45.00
2018-07-02T13:12:12.119Z,45.90
2018-07-02T13:14:40.512Z,45.60
2018-07-02T13:17:08.940Z,46.10
2018-07-02T13:19:37.385Z,45.90
2018-07-02T13:22:05.802Z,46.10
2018-07-02T13:24:34.255Z,45.00
2018-07-02T13:27:02.668Z,45.10
2018-07-02T13:29:31.072Z,45.20
2018-07-02T13:31:59.504Z,44.70
2018-07-02T13:34:27.924Z,45.30
2018-07-02T13:36:56.347Z,45.50
2018-07-02T13:39:24.735Z,45.60
2018-07-02T13:41:53.164Z,45.90
2018-07-02T13:44:21.548Z,45.70
2018-07-02T13:46:49.952Z,46.40
2018-07-02T13:49:18.380Z,46.40
2018-07-02T13:51:46.775Z,45.50
2018-07-02T13:54:15.226Z,46.00
2018-07-02T13:56:43.649Z,45.80
2018-07-02T13:59:12.146Z,46.70
2018-07-02T14:01:40.561Z,46.20
2018-07-02T14:04:08.968Z,45.70
2018-07-02T14:06:37.364Z,45.90
2018-07-02T14:09:08.510Z,45.80
2018-07-02T14:11:37.321Z,46.30
2018-07-02T14:14:05.792Z,44.80
2018-07-02T14:16:34.202Z,46.20
2018-07-02T14:19:02.612Z,45.10
2018-07-02T14:21:31.004Z,45.90
2018-07-02T14:23:59.460Z,45.80
2018-07-02T14:26:27.984Z,44.90
2018-07-02T14:28:56.377Z,45.40
2018-07-02T14:31:24.762Z,46.80
2018-07-02T14:33:53.164Z,45.10
2018-07-02T14:36:21.566Z,46.10
2018-07-02T14:38:50.581Z,45.50
2018-07-02T14:41:19.151Z,46.30
2018-07-02T14:43:47.554Z,45.80
2018-07-02T14:46:16.133Z,46.10
2018-07-02T14:48:44.552Z,46.60
2018-07-02T14:51:12.936Z,46.70
2018-07-02T14:53:41.525Z,46.40
2018-07-02T14:56:09.909Z,46.30
2018-07-02T14:58:38.319Z,45.90
2018-07-02T15:01:06.820Z,45.70
2018-07-02T15:03:35.271Z,45.80
2018-07-02T15:06:03.738Z,46.00
2018-07-02T15:08:32.131Z,45.90
2018-07-02T15:11:00.491Z,46.50
2018-07-02T15:13:28.900Z,46.40
2018-07-02T15:18:25.437Z,46.10
2018-07-02T15:20:53.828Z,46.70
2018-07-02T15:23:22.269Z,46.50
2018-07-02T15:25:50.716Z,46.30
2018-07-02T15:28:19.094Z,46.40
2018-07-02T15:30:47.495Z,46.00
2018-07-02T15:33:16.363Z,46.50
2018-07-02T15:35:44.788Z,46.40
2018-07-02T15:38:13.165Z,46.70
2018-07-02T15:40:41.559Z,46.70
2018-07-02T15:43:10.048Z,46.40
2018-07-02T15:45:38.503Z,46.60
2018-07-02T15:50:35.185Z,46.20
2018-07-02T15:53:03.628Z,46.90
2018-07-02T15:55:32.045Z,46.60
2018-07-02T15:58:00.420Z,46.30
2018-07-02T16:00:28.824Z,46.40
2018-07-02T16:02:57.199Z,46.70
2018-07-02T16:05:25.872Z,46.40
2018-07-02T16:07:54.350Z,46.30
2018-07-02T16:10:22.764Z,46.60
2018-07-02T16:12:51.235Z,47.00
2018-07-02T16:15:19.725Z,46.50
2018-07-02T16:17:48.108Z,46.60
2018-07-02T16:20:16.512Z,46.50
2018-07-02T16:22:44.920Z,46.70
2018-07-02T16:25:13.368Z,46.30
2018-07-02T16:27:41.763Z,47.10
2018-07-02T16:30:10.655Z,46.70
2018-07-02T16:32:39.347Z,47.00
2018-07-02T16:35:07.771Z,46.90
2018-07-02T16:37:36.144Z,46.90
2018-07-02T16:42:32.856Z,47.50
2018-07-02T16:45:01.526Z,46.60
2018-07-02T16:47:30.097Z,46.60
2018-07-02T16:49:58.525Z,46.80
2018-07-02T16:52:26.931Z,46.80
2018-07-02T16:54:55.328Z,47.20
2018-07-02T16:57:23.760Z,46.70
2018-07-02T16:59:52.169Z,47.10
2018-07-02T17:02:20.536Z,47.50
2018-07-02T17:04:48.979Z,47.00
2018-07-02T17:07:17.348Z,47.10
2018-07-02T17:09:45.744Z,47.20
2018-07-02T17:12:14.132Z,47.00
2018-07-02T17:14:42.518Z,47.00
2018-07-02T17:17:10.950Z,46.80
2018-07-02T17:19:40.695Z,46.90
2018-07-02T17:22:09.337Z,47.40
2018-07-02T17:24:37.751Z,47.30
2018-07-02T17:27:06.200Z,47.50
2018-07-02T17:29:34.662Z,47.50
2018-07-02T17:32:03.063Z,47.30
2018-07-02T17:34:31.484Z,47.30
2018-07-02T17:36:59.934Z,47.40
2018-07-02T17:39:28.340Z,48.00
2018-07-02T17:41:56.761Z,47.60
2018-07-02T17:44:25.131Z,48.00
2018-07-02T17:46:53.714Z,48.10
2018-07-02T17:49:22.108Z,48.00
2018-07-02T17:51:50.608Z,47.60
2018-07-02T17:54:19.036Z,47.80
2018-07-02T17:56:47.452Z,47.80
2018-07-02T18:01:43.958Z,48.30
2018-07-02T18:04:12.447Z,47.90
2018-07-02T18:06:40.848Z,48.00
2018-07-02T18:09:10.910Z,48.40
2018-07-02T18:11:39.380Z,48.50
2018-07-02T18:14:08.266Z,48.90
2018-07-02T18:16:36.692Z,49.10
2018-07-02T18:19:05.108Z,48.60
2018-07-02T18:21:33.548Z,48.40
2018-07-02T18:24:02.044Z,48.90
2018-07-02T18:26:30.467Z,49.10
2018-07-02T18:28:58.845Z,49.10
2018-07-02T18:31:27.280Z,49.20
2018-07-02T18:33:55.780Z,49.30
2018-07-02T18:36:24.210Z,49.80
2018-07-02T18:38:54.625Z,49.80
2018-07-02T18:41:23.031Z,49.70
2018-07-02T18:43:51.420Z,49.90
2018-07-02T18:46:19.824Z,49.80
2018-07-02T18:48:48.221Z,49.90
2018-07-02T18:51:16.652Z,50.00
2018-07-02T18:53:45.095Z,50.20
2018-07-02T18:56:13.471Z,50.30
2018-07-02T18:58:41.891Z,50.70
2018-07-02T19:01:10.305Z,50.90
2018-07-02T19:03:38.699Z,51.40
2018-07-02T19:06:07.105Z,51.60
2018-07-02T19:08:35.520Z,51.80
2018-07-02T19:11:03.963Z,52.00
2018-07-02T19:13:32.359Z,52.30
2018-07-02T19:16:00.757Z,52.50
2018-07-02T19:18:29.185Z,52.50
2018-07-02T19:20:57.644Z,53.00
2018-07-02T19:23:26.148Z,52.50
2018-07-02T19:25:54.539Z,53.30
2018-07-02T19:28:22.966Z,52.70
2018-07-02T19:30:51.851Z,53.20
2018-07-02T19:33:20.385Z,52.90
2018-07-02T19:35:48.803Z,53.10
2018-07-02T19:38:17.196Z,53.40
2018-07-02T19:40:45.647Z,54.00
2018-07-02T19:43:14.063Z,54.10
2018-07-02T19:45:42.497Z,53.90
2018-07-02T19:48:11.212Z,54.60
2018-07-02T19:50:40.127Z,54.60
2018-07-02T19:55:36.733Z,55.50
2018-07-02T19:58:05.427Z,55.50
2018-07-02T20:00:33.837Z,55.80
2018-07-02T20:03:02.264Z,55.80
2018-07-02T20:05:30.676Z,56.20
2018-07-02T20:10:27.195Z,56.10
2018-07-02T20:12:55.607Z,55.90
2018-07-02T20:15:24.012Z,56.00
2018-07-02T20:17:52.580Z,55.80
2018-07-02T20:20:20.979Z,56.30
2018-07-02T20:22:50.346Z,56.40
2018-07-02T20:25:18.740Z,56.70
2018-07-02T20:27:47.139Z,56.50
2018-07-02T20:30:15.573Z,57.30
2018-07-02T20:32:43.999Z,56.90
2018-07-02T20:35:12.405Z,57.40
2018-07-02T20:37:40.848Z,56.80
2018-07-02T20:40:09.264Z,56.70
2018-07-02T20:42:37.714Z,56.60
2018-07-02T20:45:06.621Z,57.00
2018-07-02T20:47:35.016Z,57.80
2018-07-02T20:50:03.525Z,57.80
2018-07-02T20:52:31.928Z,56.70
2018-07-02T20:55:00.384Z,56.60
2018-07-02T20:57:28.793Z,57.30
2018-07-02T20:59:57.212Z,57.20
2018-07-02T21:02:26.107Z,58.10
2018-07-02T21:04:54.519Z,57.40
2018-07-02T21:07:22.968Z,56.60
2018-07-02T21:09:51.387Z,56.70
2018-07-02T21:12:19.784Z,56.80
2018-07-02T21:14:48.203Z,57.20
2018-07-02T21:17:16.635Z,56.40
2018-07-02T21:19:45.124Z,56.20
2018-07-02T21:22:13.511Z,56.40
2018-07-02T21:24:41.927Z,56.00
2018-07-02T21:27:10.328Z,55.80
2018-07-02T21:29:38.848Z,56.10
2018-07-02T21:32:07.292Z,56.20
2018-07-02T21:34:35.843Z,56.00
2018-07-02T21:37:04.524Z,55.60
2018-07-02T21:39:32.935Z,56.00
2018-07-02T21:42:01.305Z,56.20
2018-07-02T21:44:29.736Z,56.30
2018-07-02T21:49:26.645Z,56.00
2018-07-02T21:51:55.376Z,55.80
2018-07-02T21:54:23.797Z,56.00
2018-07-02T21:56:52.203Z,56.80
2018-07-02T21:59:20.604Z,55.90
2018-07-02T22:01:49.022Z,56.20
2018-07-02T22:04:17.436Z,56.60
2018-07-02T22:06:45.834Z,57.10
2018-07-02T22:09:14.280Z,56.60
2018-07-02T22:11:42.742Z,56.80
2018-07-02T22:14:11.109Z,56.70
2018-07-02T22:16:39.505Z,57.00
2018-07-02T22:19:07.917Z,56.80
2018-07-02T22:21:36.319Z,56.80
2018-07-02T22:24:04.755Z,56.70
2018-07-02T22:26:34.798Z,57.70
2018-07-02T22:29:03.255Z,57.30
2018-07-02T22:31:31.644Z,57.60
2018-07-02T22:34:00.456Z,57.40
2018-07-02T22:36:28.992Z,57.00
2018-07-02T22:38:57.468Z,56.70
2018-07-02T22:41:26.287Z,56.90
2018-07-02T22:43:54.675Z,56.60
2018-07-02T22:46:23.073Z,56.90
2018-07-02T22:48:57.872Z,56.90
2018-07-02T22:51:30.344Z,57.30
2018-07-02T22:53:58.751Z,57.10
2018-07-02T22:56:27.140Z,57.40
2018-07-02T22:58:55.503Z,57.60
2018-07-02T23:01:23.891Z,57.40
2018-07-02T23:03:52.275Z,57.50
2018-07-02T23:06:20.700Z,57.40
2018-07-02T23:08:49.080Z,57.60
2018-07-02T23:11:17.448Z,57.90
2018-07-02T23:13:45.854Z,57.50
2018-07-02T23:16:14.263Z,57.60
2018-07-02T23:21:10.704Z,58.20
2018-07-02T23:23:39.099Z,58.40
2018-07-02T23:26:07.511Z,58.80
2018-07-02T23:28:35.881Z,60.00
2018-07-02T23:31:04.275Z,59.20
2018-07-02T23:33:32.643Z,59.00
2018-07-02T23:36:01.043Z,58.70
2018-07-02T23:38:29.414Z,59.20
2018-07-02T23:40:57.804Z,59.70
2018-07-02T23:43:26.180Z,59.40
2018-07-02T23:45:54.565Z,59.70
2018-07-02T23:48:22.929Z,59.80
2018-07-02T23:50:51.320Z,60.50
2018-07-02T23:53:19.675Z,61.30
2018-07-02T23:55:48.082Z,62.70
2018-07-02T23:58:16.467Z,63.30
